sensor_id;sensor_type;location;lat;lon;timestamp;temperature;humidity
66934;DHT22;53846;51.984;5.890;2022-10-16T00:01:55;15.30;78.20
66934;DHT22;53846;51.984;5.890;2022-10-16T00:04:24;15.50;78.30
66934;DHT22;53846;51.984;5.890;2022-10-16T00:06:54;15.70;78.50
66934;DHT22;53846;51.984;5.890;2022-10-16T00:09:25;15.50;78.40
66934;DHT22;53846;51.984;5.890;2022-10-16T00:11:55;15.60;78.60
66934;DHT22;53846;51.984;5.890;2022-10-16T00:14:24;15.40;79.20
66934;DHT22;53846;51.984;5.890;2022-10-16T00:16:53;15.20;80.40
66934;DHT22;53846;51.984;5.890;2022-10-16T00:19:22;15.40;80.10
66934;DHT22;53846;51.984;5.890;2022-10-16T00:21:51;15.40;79.40
66934;DHT22;53846;51.984;5.890;2022-10-16T00:24:20;15.50;79.10
66934;DHT22;53846;51.984;5.890;2022-10-16T00:26:52;15.40;79.50
66934;DHT22;53846;51.984;5.890;2022-10-16T00:29:21;15.50;78.30
66934;DHT22;53846;51.984;5.890;2022-10-16T00:31:50;15.40;78.40
66934;DHT22;53846;51.984;5.890;2022-10-16T00:34:20;15.10;78.50
66934;DHT22;53846;51.984;5.890;2022-10-16T00:36:49;15.30;78.90
66934;DHT22;53846;51.984;5.890;2022-10-16T00:39:18;15.30;78.80
66934;DHT22;53846;51.984;5.890;2022-10-16T00:41:48;15.30;78.90
66934;DHT22;53846;51.984;5.890;2022-10-16T00:44:45;15.40;78.90
66934;DHT22;53846;51.984;5.890;2022-10-16T00:47:19;15.20;78.90
66934;DHT22;53846;51.984;5.890;2022-10-16T00:49:53;15.40;79.00
66934;DHT22;53846;51.984;5.890;2022-10-16T00:52:24;15.20;79.10
66934;DHT22;53846;51.984;5.890;2022-10-16T00:54:54;15.40;79.60
66934;DHT22;53846;51.984;5.890;2022-10-16T00:57:24;15.50;79.70
66934;DHT22;53846;51.984;5.890;2022-10-16T00:59:57;15.20;79.70
66934;DHT22;53846;51.984;5.890;2022-10-16T01:02:26;15.60;80.50
66934;DHT22;53846;51.984;5.890;2022-10-16T01:04:55;15.40;80.40
66934;DHT22;53846;51.984;5.890;2022-10-16T01:07:33;15.60;80.60
66934;DHT22;53846;51.984;5.890;2022-10-16T01:10:17;15.40;80.60
66934;DHT22;53846;51.984;5.890;2022-10-16T01:12:51;15.40;81.00
66934;DHT22;53846;51.984;5.890;2022-10-16T01:15:30;15.40;80.90
66934;DHT22;53846;51.984;5.890;2022-10-16T01:18:03;15.40;81.20
66934;DHT22;53846;51.984;5.890;2022-10-16T01:20:37;15.40;81.20
66934;DHT22;53846;51.984;5.890;2022-10-16T01:23:15;15.20;81.30
66934;DHT22;53846;51.984;5.890;2022-10-16T01:25:55;15.70;81.40
66934;DHT22;53846;51.984;5.890;2022-10-16T01:28:34;15.40;81.00
66934;DHT22;53846;51.984;5.890;2022-10-16T01:31:05;15.80;81.30
66934;DHT22;53846;51.984;5.890;2022-10-16T01:33:38;15.50;81.20
66934;DHT22;53846;51.984;5.890;2022-10-16T01:36:12;15.50;81.20
66934;DHT22;53846;51.984;5.890;2022-10-16T01:38:44;15.50;81.10
66934;DHT22;53846;51.984;5.890;2022-10-16T01:41:17;15.60;81.00
66934;DHT22;53846;51.984;5.890;2022-10-16T01:43:56;15.50;81.70
66934;DHT22;53846;51.984;5.890;2022-10-16T01:46:26;15.60;81.50
66934;DHT22;53846;51.984;5.890;2022-10-16T01:48:58;15.60;81.00
66934;DHT22;53846;51.984;5.890;2022-10-16T01:51:29;15.60;80.80
66934;DHT22;53846;51.984;5.890;2022-10-16T01:54:00;15.80;81.10
66934;DHT22;53846;51.984;5.890;2022-10-16T01:56:30;15.70;81.00
66934;DHT22;53846;51.984;5.890;2022-10-16T01:59:06;15.70;81.00
66934;DHT22;53846;51.984;5.890;2022-10-16T02:01:39;15.80;81.10
66934;DHT22;53846;51.984;5.890;2022-10-16T02:04:13;15.90;81.20
66934;DHT22;53846;51.984;5.890;2022-10-16T02:06:44;15.90;81.30
66934;DHT22;53846;51.984;5.890;2022-10-16T02:09:13;15.70;81.10
66934;DHT22;53846;51.984;5.890;2022-10-16T02:11:43;16.00;81.40
66934;DHT22;53846;51.984;5.890;2022-10-16T02:14:15;15.40;81.00
66934;DHT22;53846;51.984;5.890;2022-10-16T02:16:46;15.90;81.30
66934;DHT22;53846;51.984;5.890;2022-10-16T02:19:16;15.70;81.30
66934;DHT22;53846;51.984;5.890;2022-10-16T02:21:49;15.60;81.20
66934;DHT22;53846;51.984;5.890;2022-10-16T02:24:22;15.70;81.30
66934;DHT22;53846;51.984;5.890;2022-10-16T02:27:00;15.80;81.20
66934;DHT22;53846;51.984;5.890;2022-10-16T02:29:35;15.80;81.20
66934;DHT22;53846;51.984;5.890;2022-10-16T02:32:12;15.80;81.00
66934;DHT22;53846;51.984;5.890;2022-10-16T02:34:44;15.80;81.20
66934;DHT22;53846;51.984;5.890;2022-10-16T02:37:14;15.70;81.00
66934;DHT22;53846;51.984;5.890;2022-10-16T02:39:45;15.70;81.30
66934;DHT22;53846;51.984;5.890;2022-10-16T02:42:14;15.50;81.20
66934;DHT22;53846;51.984;5.890;2022-10-16T02:44:46;15.90;81.60
66934;DHT22;53846;51.984;5.890;2022-10-16T02:47:15;15.70;81.50
66934;DHT22;53846;51.984;5.890;2022-10-16T02:49:44;15.60;81.40
66934;DHT22;53846;51.984;5.890;2022-10-16T02:52:14;15.60;81.50
66934;DHT22;53846;51.984;5.890;2022-10-16T02:54:43;15.90;81.50
66934;DHT22;53846;51.984;5.890;2022-10-16T02:57:12;15.80;81.40
66934;DHT22;53846;51.984;5.890;2022-10-16T02:59:41;15.90;81.80
66934;DHT22;53846;51.984;5.890;2022-10-16T03:02:13;15.40;81.30
66934;DHT22;53846;51.984;5.890;2022-10-16T03:04:43;15.70;81.20
66934;DHT22;53846;51.984;5.890;2022-10-16T03:07:12;15.80;81.00
66934;DHT22;53846;51.984;5.890;2022-10-16T03:09:41;15.70;81.00
66934;DHT22;53846;51.984;5.890;2022-10-16T03:12:10;15.70;81.00
66934;DHT22;53846;51.984;5.890;2022-10-16T03:14:39;15.70;81.80
66934;DHT22;53846;51.984;5.890;2022-10-16T03:17:09;15.80;82.00
66934;DHT22;53846;51.984;5.890;2022-10-16T03:19:41;15.80;81.50
66934;DHT22;53846;51.984;5.890;2022-10-16T03:22:10;15.80;81.20
66934;DHT22;53846;51.984;5.890;2022-10-16T03:24:40;16.00;81.30
66934;DHT22;53846;51.984;5.890;2022-10-16T03:27:09;15.90;81.20
66934;DHT22;53846;51.984;5.890;2022-10-16T03:29:38;15.60;80.90
66934;DHT22;53846;51.984;5.890;2022-10-16T03:32:07;15.70;81.00
66934;DHT22;53846;51.984;5.890;2022-10-16T03:34:36;15.50;81.00
66934;DHT22;53846;51.984;5.890;2022-10-16T03:37:08;15.70;81.10
66934;DHT22;53846;51.984;5.890;2022-10-16T03:39:37;15.90;81.30
66934;DHT22;53846;51.984;5.890;2022-10-16T03:42:06;15.70;81.10
66934;DHT22;53846;51.984;5.890;2022-10-16T03:44:36;15.50;81.00
66934;DHT22;53846;51.984;5.890;2022-10-16T03:47:05;15.40;80.90
66934;DHT22;53846;51.984;5.890;2022-10-16T03:49:34;16.00;81.30
66934;DHT22;53846;51.984;5.890;2022-10-16T03:52:04;15.70;81.10
66934;DHT22;53846;51.984;5.890;2022-10-16T03:54:35;15.60;81.10
66934;DHT22;53846;51.984;5.890;2022-10-16T03:57:04;15.70;81.20
66934;DHT22;53846;51.984;5.890;2022-10-16T03:59:34;15.50;81.10
66934;DHT22;53846;51.984;5.890;2022-10-16T04:02:03;15.80;81.40
66934;DHT22;53846;51.984;5.890;2022-10-16T04:04:32;15.60;81.40
66934;DHT22;53846;51.984;5.890;2022-10-16T04:07:01;15.60;81.40
66934;DHT22;53846;51.984;5.890;2022-10-16T04:09:31;15.90;81.60
66934;DHT22;53846;51.984;5.890;2022-10-16T04:12:02;15.60;81.20
66934;DHT22;53846;51.984;5.890;2022-10-16T04:14:32;15.60;81.30
66934;DHT22;53846;51.984;5.890;2022-10-16T04:17:01;15.70;81.40
66934;DHT22;53846;51.984;5.890;2022-10-16T04:19:30;15.40;81.20
66934;DHT22;53846;51.984;5.890;2022-10-16T04:21:59;15.60;81.20
66934;DHT22;53846;51.984;5.890;2022-10-16T04:24:28;15.70;81.30
66934;DHT22;53846;51.984;5.890;2022-10-16T04:26:58;15.50;81.20
66934;DHT22;53846;51.984;5.890;2022-10-16T04:29:29;15.50;82.70
66934;DHT22;53846;51.984;5.890;2022-10-16T04:31:59;15.40;82.20
66934;DHT22;53846;51.984;5.890;2022-10-16T04:34:28;15.50;81.50
66934;DHT22;53846;51.984;5.890;2022-10-16T04:36:57;15.50;81.20
66934;DHT22;53846;51.984;5.890;2022-10-16T04:39:26;15.70;81.10
66934;DHT22;53846;51.984;5.890;2022-10-16T04:41:55;15.80;81.20
66934;DHT22;53846;51.984;5.890;2022-10-16T04:44:24;15.80;81.20
66934;DHT22;53846;51.984;5.890;2022-10-16T04:46:56;15.70;81.10
66934;DHT22;53846;51.984;5.890;2022-10-16T04:49:25;15.70;81.00
66934;DHT22;53846;51.984;5.890;2022-10-16T04:51:54;15.90;81.40
66934;DHT22;53846;51.984;5.890;2022-10-16T04:54:24;15.60;81.10
66934;DHT22;53846;51.984;5.890;2022-10-16T04:56:53;15.60;81.70
66934;DHT22;53846;51.984;5.890;2022-10-16T04:59:22;15.60;81.70
66934;DHT22;53846;51.984;5.890;2022-10-16T05:01:52;15.60;81.60
66934;DHT22;53846;51.984;5.890;2022-10-16T05:04:24;15.60;81.80
66934;DHT22;53846;51.984;5.890;2022-10-16T05:06:53;15.50;82.20
66934;DHT22;53846;51.984;5.890;2022-10-16T05:09:22;15.50;82.10
66934;DHT22;53846;51.984;5.890;2022-10-16T05:11:51;15.90;82.20
66934;DHT22;53846;51.984;5.890;2022-10-16T05:14:20;15.50;82.10
66934;DHT22;53846;51.984;5.890;2022-10-16T05:16:50;15.50;82.00
66934;DHT22;53846;51.984;5.890;2022-10-16T05:19:19;15.40;81.80
66934;DHT22;53846;51.984;5.890;2022-10-16T05:21:51;15.50;81.90
66934;DHT22;53846;51.984;5.890;2022-10-16T05:24:20;15.50;81.80
66934;DHT22;53846;51.984;5.890;2022-10-16T05:26:50;15.50;81.70
66934;DHT22;53846;51.984;5.890;2022-10-16T05:29:19;15.80;81.90
66934;DHT22;53846;51.984;5.890;2022-10-16T05:31:50;15.30;81.60
66934;DHT22;53846;51.984;5.890;2022-10-16T05:34:20;15.40;81.50
66934;DHT22;53846;51.984;5.890;2022-10-16T05:36:52;15.50;81.70
66934;DHT22;53846;51.984;5.890;2022-10-16T05:39:21;15.50;82.10
66934;DHT22;53846;51.984;5.890;2022-10-16T05:41:51;15.50;82.10
66934;DHT22;53846;51.984;5.890;2022-10-16T05:44:20;15.40;82.20
66934;DHT22;53846;51.984;5.890;2022-10-16T05:46:49;15.20;82.10
66934;DHT22;53846;51.984;5.890;2022-10-16T05:49:18;15.20;82.10
66934;DHT22;53846;51.984;5.890;2022-10-16T05:51:47;15.30;82.30
66934;DHT22;53846;51.984;5.890;2022-10-16T05:54:19;15.10;82.30
66934;DHT22;53846;51.984;5.890;2022-10-16T05:56:48;15.10;83.90
66934;DHT22;53846;51.984;5.890;2022-10-16T05:59:18;15.30;83.70
66934;DHT22;53846;51.984;5.890;2022-10-16T06:01:47;15.20;82.90
66934;DHT22;53846;51.984;5.890;2022-10-16T06:04:16;15.20;82.40
66934;DHT22;53846;51.984;5.890;2022-10-16T06:06:45;15.20;82.30
66934;DHT22;53846;51.984;5.890;2022-10-16T06:09:14;15.20;82.10
66934;DHT22;53846;51.984;5.890;2022-10-16T06:11:46;15.20;82.10
66934;DHT22;53846;51.984;5.890;2022-10-16T06:14:16;15.10;82.10
66934;DHT22;53846;51.984;5.890;2022-10-16T06:16:45;15.20;82.50
66934;DHT22;53846;51.984;5.890;2022-10-16T06:19:14;15.20;82.60
66934;DHT22;53846;51.984;5.890;2022-10-16T06:21:43;15.20;82.60
66934;DHT22;53846;51.984;5.890;2022-10-16T06:24:13;15.20;82.60
66934;DHT22;53846;51.984;5.890;2022-10-16T06:26:42;15.30;82.90
66934;DHT22;53846;51.984;5.890;2022-10-16T06:29:14;15.20;82.80
66934;DHT22;53846;51.984;5.890;2022-10-16T06:31:43;15.20;82.90
66934;DHT22;53846;51.984;5.890;2022-10-16T06:34:12;15.30;83.40
66934;DHT22;53846;51.984;5.890;2022-10-16T06:36:41;15.30;83.20
66934;DHT22;53846;51.984;5.890;2022-10-16T06:39:10;15.40;83.00
66934;DHT22;53846;51.984;5.890;2022-10-16T06:41:40;15.40;83.30
66934;DHT22;53846;51.984;5.890;2022-10-16T06:44:18;15.70;84.00
66934;DHT22;53846;51.984;5.890;2022-10-16T06:46:47;15.80;83.90
66934;DHT22;53846;51.984;5.890;2022-10-16T06:49:16;16.10;83.40
66934;DHT22;53846;51.984;5.890;2022-10-16T06:51:48;16.50;82.10
66934;DHT22;53846;51.984;5.890;2022-10-16T06:54:17;16.50;80.40
66934;DHT22;53846;51.984;5.890;2022-10-16T06:56:47;16.60;79.70
66934;DHT22;53846;51.984;5.890;2022-10-16T06:59:18;16.60;79.00
66934;DHT22;53846;51.984;5.890;2022-10-16T07:01:47;16.50;79.10
66934;DHT22;53846;51.984;5.890;2022-10-16T07:04:17;16.50;79.70
66934;DHT22;53846;51.984;5.890;2022-10-16T07:06:46;16.50;79.00
66934;DHT22;53846;51.984;5.890;2022-10-16T07:09:15;16.40;78.20
66934;DHT22;53846;51.984;5.890;2022-10-16T07:11:44;16.30;78.20
66934;DHT22;53846;51.984;5.890;2022-10-16T07:14:19;16.60;78.60
66934;DHT22;53846;51.984;5.890;2022-10-16T07:16:48;16.50;78.90
66934;DHT22;53846;51.984;5.890;2022-10-16T07:19:17;16.70;79.10
66934;DHT22;53846;51.984;5.890;2022-10-16T07:21:47;16.60;80.60
66934;DHT22;53846;51.984;5.890;2022-10-16T07:24:16;16.00;80.20
66934;DHT22;53846;51.984;5.890;2022-10-16T07:26:46;16.30;80.10
66934;DHT22;53846;51.984;5.890;2022-10-16T07:29:19;16.30;79.90
66934;DHT22;53846;51.984;5.890;2022-10-16T07:31:50;16.50;80.20
66934;DHT22;53846;51.984;5.890;2022-10-16T07:34:20;16.10;80.40
66934;DHT22;53846;51.984;5.890;2022-10-16T07:36:50;16.40;80.60
66934;DHT22;53846;51.984;5.890;2022-10-16T07:39:20;16.50;80.40
66934;DHT22;53846;51.984;5.890;2022-10-16T07:41:49;16.50;80.70
66934;DHT22;53846;51.984;5.890;2022-10-16T07:44:21;16.80;81.50
66934;DHT22;53846;51.984;5.890;2022-10-16T07:46:50;17.50;80.80
66934;DHT22;53846;51.984;5.890;2022-10-16T07:49:19;17.80;77.40
66934;DHT22;53846;51.984;5.890;2022-10-16T07:51:48;18.00;74.60
66934;DHT22;53846;51.984;5.890;2022-10-16T07:54:17;18.60;75.20
66934;DHT22;53846;51.984;5.890;2022-10-16T07:56:47;19.10;73.10
66934;DHT22;53846;51.984;5.890;2022-10-16T07:59:16;19.70;68.10
66934;DHT22;53846;51.984;5.890;2022-10-16T08:01:49;20.00;66.90
66934;DHT22;53846;51.984;5.890;2022-10-16T08:04:18;20.10;66.40
66934;DHT22;53846;51.984;5.890;2022-10-16T08:06:47;20.10;66.60
66934;DHT22;53846;51.984;5.890;2022-10-16T08:09:16;20.20;68.70
66934;DHT22;53846;51.984;5.890;2022-10-16T08:11:45;20.90;66.50
66934;DHT22;53846;51.984;5.890;2022-10-16T08:14:15;21.60;61.40
66934;DHT22;53846;51.984;5.890;2022-10-16T08:16:44;22.10;60.60
66934;DHT22;53846;51.984;5.890;2022-10-16T08:19:15;22.70;58.40
66934;DHT22;53846;51.984;5.890;2022-10-16T08:21:47;23.40;56.80
66934;DHT22;53846;51.984;5.890;2022-10-16T08:24:16;23.80;56.50
66934;DHT22;53846;51.984;5.890;2022-10-16T08:26:45;24.50;52.50
66934;DHT22;53846;51.984;5.890;2022-10-16T08:29:15;24.60;51.10
66934;DHT22;53846;51.984;5.890;2022-10-16T08:31:44;24.50;52.20
66934;DHT22;53846;51.984;5.890;2022-10-16T08:34:15;24.00;52.10
66934;DHT22;53846;51.984;5.890;2022-10-16T08:36:45;23.40;53.30
66934;DHT22;53846;51.984;5.890;2022-10-16T08:39:15;23.50;54.20
66934;DHT22;53846;51.984;5.890;2022-10-16T08:42:11;22.80;55.40
66934;DHT22;53846;51.984;5.890;2022-10-16T08:45:07;22.80;56.50
66934;DHT22;53846;51.984;5.890;2022-10-16T08:47:49;23.40;55.10
66934;DHT22;53846;51.984;5.890;2022-10-16T08:50:26;23.50;52.90
66934;DHT22;53846;51.984;5.890;2022-10-16T08:52:57;23.30;53.70
66934;DHT22;53846;51.984;5.890;2022-10-16T08:55:33;23.30;52.40
66934;DHT22;53846;51.984;5.890;2022-10-16T08:58:11;24.00;52.80
66934;DHT22;53846;51.984;5.890;2022-10-16T09:00:42;24.30;51.60
66934;DHT22;53846;51.984;5.890;2022-10-16T09:03:19;24.20;51.70
66934;DHT22;53846;51.984;5.890;2022-10-16T09:06:24;24.60;50.30
66934;DHT22;53846;51.984;5.890;2022-10-16T09:09:11;25.00;49.60
66934;DHT22;53846;51.984;5.890;2022-10-16T09:11:47;25.30;48.20
66934;DHT22;53846;51.984;5.890;2022-10-16T09:14:36;25.60;48.10
66934;DHT22;53846;51.984;5.890;2022-10-16T09:17:21;25.90;47.30
66934;DHT22;53846;51.984;5.890;2022-10-16T09:19:55;26.40;46.40
66934;DHT22;53846;51.984;5.890;2022-10-16T09:22:28;26.80;44.80
66934;DHT22;53846;51.984;5.890;2022-10-16T09:25:00;27.20;43.90
66934;DHT22;53846;51.984;5.890;2022-10-16T09:27:30;27.10;43.60
66934;DHT22;53846;51.984;5.890;2022-10-16T09:30:00;26.90;44.30
66934;DHT22;53846;51.984;5.890;2022-10-16T09:32:29;27.00;43.80
66934;DHT22;53846;51.984;5.890;2022-10-16T09:34:59;27.20;43.50
66934;DHT22;53846;51.984;5.890;2022-10-16T09:37:31;27.40;44.00
66934;DHT22;53846;51.984;5.890;2022-10-16T09:40:00;27.50;42.50
66934;DHT22;53846;51.984;5.890;2022-10-16T09:42:33;27.50;42.20
66934;DHT22;53846;51.984;5.890;2022-10-16T09:45:04;27.50;43.30
66934;DHT22;53846;51.984;5.890;2022-10-16T09:47:39;27.50;42.90
66934;DHT22;53846;51.984;5.890;2022-10-16T09:50:21;27.40;43.00
66934;DHT22;53846;51.984;5.890;2022-10-16T09:53:08;27.30;43.70
66934;DHT22;53846;51.984;5.890;2022-10-16T09:55:50;27.40;43.60
66934;DHT22;53846;51.984;5.890;2022-10-16T09:58:21;27.50;42.70
66934;DHT22;53846;51.984;5.890;2022-10-16T10:00:53;27.50;43.10
66934;DHT22;53846;51.984;5.890;2022-10-16T10:03:35;27.50;43.50
66934;DHT22;53846;51.984;5.890;2022-10-16T10:06:15;27.70;42.50
66934;DHT22;53846;51.984;5.890;2022-10-16T10:09:04;27.70;41.70
66934;DHT22;53846;51.984;5.890;2022-10-16T10:11:51;28.00;42.00
66934;DHT22;53846;51.984;5.890;2022-10-16T10:14:24;28.40;41.60
66934;DHT22;53846;51.984;5.890;2022-10-16T10:17:08;28.60;41.30
66934;DHT22;53846;51.984;5.890;2022-10-16T10:19:39;29.20;40.80
66934;DHT22;53846;51.984;5.890;2022-10-16T10:22:25;29.20;40.60
66934;DHT22;53846;51.984;5.890;2022-10-16T10:30:44;29.80;38.50
66934;DHT22;53846;51.984;5.890;2022-10-16T10:33:24;29.70;38.30
66934;DHT22;53846;51.984;5.890;2022-10-16T10:36:02;29.60;39.20
66934;DHT22;53846;51.984;5.890;2022-10-16T10:38:41;30.10;38.10
66934;DHT22;53846;51.984;5.890;2022-10-16T10:41:32;30.60;37.20
66934;DHT22;53846;51.984;5.890;2022-10-16T10:44:15;31.00;34.80
66934;DHT22;53846;51.984;5.890;2022-10-16T10:46:50;30.90;34.90
66934;DHT22;53846;51.984;5.890;2022-10-16T10:49:32;30.70;35.70
66934;DHT22;53846;51.984;5.890;2022-10-16T10:52:20;30.70;35.90
66934;DHT22;53846;51.984;5.890;2022-10-16T10:54:59;30.80;35.90
66934;DHT22;53846;51.984;5.890;2022-10-16T10:57:39;30.90;35.30
66934;DHT22;53846;51.984;5.890;2022-10-16T11:00:19;30.90;34.40
66934;DHT22;53846;51.984;5.890;2022-10-16T11:02:54;30.40;35.10
66934;DHT22;53846;51.984;5.890;2022-10-16T11:05:48;29.60;35.90
66934;DHT22;53846;51.984;5.890;2022-10-16T11:08:20;28.50;37.70
66934;DHT22;53846;51.984;5.890;2022-10-16T11:10:54;28.80;38.50
66934;DHT22;53846;51.984;5.890;2022-10-16T11:13:32;29.30;37.90
66934;DHT22;53846;51.984;5.890;2022-10-16T11:16:10;29.40;36.50
66934;DHT22;53846;51.984;5.890;2022-10-16T11:18:47;29.50;36.40
66934;DHT22;53846;51.984;5.890;2022-10-16T11:21:19;29.30;37.50
66934;DHT22;53846;51.984;5.890;2022-10-16T11:23:54;29.30;36.40
66934;DHT22;53846;51.984;5.890;2022-10-16T11:26:27;29.30;36.80
66934;DHT22;53846;51.984;5.890;2022-10-16T11:29:01;29.40;36.70
66934;DHT22;53846;51.984;5.890;2022-10-16T11:31:36;28.90;36.90
66934;DHT22;53846;51.984;5.890;2022-10-16T11:34:11;28.80;37.70
66934;DHT22;53846;51.984;5.890;2022-10-16T11:36:47;28.70;36.80
66934;DHT22;53846;51.984;5.890;2022-10-16T11:39:20;28.60;37.20
66934;DHT22;53846;51.984;5.890;2022-10-16T11:41:52;27.90;38.00
66934;DHT22;53846;51.984;5.890;2022-10-16T11:44:38;27.30;38.50
66934;DHT22;53846;51.984;5.890;2022-10-16T11:47:18;27.60;39.20
66934;DHT22;53846;51.984;5.890;2022-10-16T11:49:51;27.80;39.30
66934;DHT22;53846;51.984;5.890;2022-10-16T11:52:25;28.00;37.60
66934;DHT22;53846;51.984;5.890;2022-10-16T11:55:04;27.50;37.90
66934;DHT22;53846;51.984;5.890;2022-10-16T11:57:39;27.50;39.30
66934;DHT22;53846;51.984;5.890;2022-10-16T12:00:20;28.00;39.50
66934;DHT22;53846;51.984;5.890;2022-10-16T12:02:57;28.10;37.20
66934;DHT22;53846;51.984;5.890;2022-10-16T12:05:35;28.30;36.20
66934;DHT22;53846;51.984;5.890;2022-10-16T12:08:11;27.90;37.90
66934;DHT22;53846;51.984;5.890;2022-10-16T12:10:43;27.50;38.70
66934;DHT22;53846;51.984;5.890;2022-10-16T12:13:33;27.80;38.60
66934;DHT22;53846;51.984;5.890;2022-10-16T12:16:21;28.30;37.60
66934;DHT22;53846;51.984;5.890;2022-10-16T12:19:03;28.70;37.20
66934;DHT22;53846;51.984;5.890;2022-10-16T12:21:38;28.90;35.70
66934;DHT22;53846;51.984;5.890;2022-10-16T12:24:27;28.80;37.00
66934;DHT22;53846;51.984;5.890;2022-10-16T12:26:58;28.70;37.20
66934;DHT22;53846;51.984;5.890;2022-10-16T12:29:37;28.60;37.00
66934;DHT22;53846;51.984;5.890;2022-10-16T12:32:29;29.20;36.10
66934;DHT22;53846;51.984;5.890;2022-10-16T12:35:00;29.80;37.00
66934;DHT22;53846;51.984;5.890;2022-10-16T12:37:31;30.00;36.10
66934;DHT22;53846;51.984;5.890;2022-10-16T12:40:12;30.20;34.70
66934;DHT22;53846;51.984;5.890;2022-10-16T12:42:42;30.50;34.80
66934;DHT22;53846;51.984;5.890;2022-10-16T12:45:25;30.50;34.30
66934;DHT22;53846;51.984;5.890;2022-10-16T12:47:59;30.40;34.40
66934;DHT22;53846;51.984;5.890;2022-10-16T12:50:33;30.50;33.90
66934;DHT22;53846;51.984;5.890;2022-10-16T12:53:04;30.20;33.60
66934;DHT22;53846;51.984;5.890;2022-10-16T12:55:52;29.90;34.50
66934;DHT22;53846;51.984;5.890;2022-10-16T12:58:53;29.70;35.00
66934;DHT22;53846;51.984;5.890;2022-10-16T13:01:34;30.00;35.20
66934;DHT22;53846;51.984;5.890;2022-10-16T13:04:22;30.40;35.50
66934;DHT22;53846;51.984;5.890;2022-10-16T13:07:01;30.00;33.60
66934;DHT22;53846;51.984;5.890;2022-10-16T13:09:49;30.20;34.90
66934;DHT22;53846;51.984;5.890;2022-10-16T13:12:38;30.10;33.60
66934;DHT22;53846;51.984;5.890;2022-10-16T13:15:22;30.00;33.20
66934;DHT22;53846;51.984;5.890;2022-10-16T13:17:59;29.80;33.50
66934;DHT22;53846;51.984;5.890;2022-10-16T13:20:46;29.30;34.80
66934;DHT22;53846;51.984;5.890;2022-10-16T13:23:24;29.10;35.30
66934;DHT22;53846;51.984;5.890;2022-10-16T13:26:04;28.90;35.30
66934;DHT22;53846;51.984;5.890;2022-10-16T13:28:37;29.20;36.10
66934;DHT22;53846;51.984;5.890;2022-10-16T13:31:14;29.10;36.90
66934;DHT22;53846;51.984;5.890;2022-10-16T13:33:47;28.80;36.80
66934;DHT22;53846;51.984;5.890;2022-10-16T13:36:23;29.20;37.20
66934;DHT22;53846;51.984;5.890;2022-10-16T13:39:03;29.20;37.40
66934;DHT22;53846;51.984;5.890;2022-10-16T13:41:33;29.10;37.30
66934;DHT22;53846;51.984;5.890;2022-10-16T13:44:02;28.90;37.70
66934;DHT22;53846;51.984;5.890;2022-10-16T13:46:32;28.80;37.40
66934;DHT22;53846;51.984;5.890;2022-10-16T13:49:02;28.80;37.80
66934;DHT22;53846;51.984;5.890;2022-10-16T13:51:34;28.70;38.10
66934;DHT22;53846;51.984;5.890;2022-10-16T13:54:04;28.80;38.00
66934;DHT22;53846;51.984;5.890;2022-10-16T13:56:33;28.90;38.60
66934;DHT22;53846;51.984;5.890;2022-10-16T13:59:04;28.90;38.60
66934;DHT22;53846;51.984;5.890;2022-10-16T14:01:39;29.10;37.70
66934;DHT22;53846;51.984;5.890;2022-10-16T14:04:11;29.20;37.40
66934;DHT22;53846;51.984;5.890;2022-10-16T14:06:45;29.40;36.90
66934;DHT22;53846;51.984;5.890;2022-10-16T14:09:22;29.30;37.20
66934;DHT22;53846;51.984;5.890;2022-10-16T14:11:54;29.40;36.90
66934;DHT22;53846;51.984;5.890;2022-10-16T14:14:25;29.20;36.40
66934;DHT22;53846;51.984;5.890;2022-10-16T14:16:56;28.80;36.30
66934;DHT22;53846;51.984;5.890;2022-10-16T14:19:27;28.90;36.90
66934;DHT22;53846;51.984;5.890;2022-10-16T14:22:01;28.80;36.50
66934;DHT22;53846;51.984;5.890;2022-10-16T14:24:33;28.60;37.00
66934;DHT22;53846;51.984;5.890;2022-10-16T14:27:23;28.50;37.20
66934;DHT22;53846;51.984;5.890;2022-10-16T14:30:15;28.30;36.80
66934;DHT22;53846;51.984;5.890;2022-10-16T14:32:55;28.20;37.40
66934;DHT22;53846;51.984;5.890;2022-10-16T14:35:30;28.10;36.70
66934;DHT22;53846;51.984;5.890;2022-10-16T14:38:04;27.90;37.70
66934;DHT22;53846;51.984;5.890;2022-10-16T14:40:35;27.80;37.60
66934;DHT22;53846;51.984;5.890;2022-10-16T14:43:05;27.60;37.30
66934;DHT22;53846;51.984;5.890;2022-10-16T14:45:35;27.60;37.80
66934;DHT22;53846;51.984;5.890;2022-10-16T14:48:16;27.70;38.30
66934;DHT22;53846;51.984;5.890;2022-10-16T14:50:47;27.50;38.60
66934;DHT22;53846;51.984;5.890;2022-10-16T14:53:18;27.60;39.00
66934;DHT22;53846;51.984;5.890;2022-10-16T14:55:48;27.30;39.10
66934;DHT22;53846;51.984;5.890;2022-10-16T14:58:21;27.20;39.20
66934;DHT22;53846;51.984;5.890;2022-10-16T15:00:52;26.70;39.50
66934;DHT22;53846;51.984;5.890;2022-10-16T15:03:21;26.70;39.90
66934;DHT22;53846;51.984;5.890;2022-10-16T15:05:50;26.80;40.50
66934;DHT22;53846;51.984;5.890;2022-10-16T15:08:22;26.50;41.00
66934;DHT22;53846;51.984;5.890;2022-10-16T15:10:51;26.30;41.20
66934;DHT22;53846;51.984;5.890;2022-10-16T15:13:20;26.50;41.10
66934;DHT22;53846;51.984;5.890;2022-10-16T15:15:50;26.20;41.40
66934;DHT22;53846;51.984;5.890;2022-10-16T15:18:19;25.90;41.60
66934;DHT22;53846;51.984;5.890;2022-10-16T15:20:49;26.10;42.20
66934;DHT22;53846;51.984;5.890;2022-10-16T15:23:22;25.70;42.00
66934;DHT22;53846;51.984;5.890;2022-10-16T15:25:53;25.60;42.00
66934;DHT22;53846;51.984;5.890;2022-10-16T15:28:23;25.30;42.40
66934;DHT22;53846;51.984;5.890;2022-10-16T15:30:55;25.30;42.70
66934;DHT22;53846;51.984;5.890;2022-10-16T15:33:26;25.00;43.00
66934;DHT22;53846;51.984;5.890;2022-10-16T15:35:59;24.60;43.10
66934;DHT22;53846;51.984;5.890;2022-10-16T15:38:31;24.60;43.40
66934;DHT22;53846;51.984;5.890;2022-10-16T15:41:00;24.40;44.20
66934;DHT22;53846;51.984;5.890;2022-10-16T15:43:29;24.30;44.80
66934;DHT22;53846;51.984;5.890;2022-10-16T15:46:00;24.30;45.30
66934;DHT22;53846;51.984;5.890;2022-10-16T15:48:30;24.20;45.60
66934;DHT22;53846;51.984;5.890;2022-10-16T15:51:00;23.90;45.80
66934;DHT22;53846;51.984;5.890;2022-10-16T15:53:31;23.70;45.90
66934;DHT22;53846;51.984;5.890;2022-10-16T15:56:01;23.60;46.20
66934;DHT22;53846;51.984;5.890;2022-10-16T15:58:30;23.70;46.30
66934;DHT22;53846;51.984;5.890;2022-10-16T16:01:01;23.40;46.60
66934;DHT22;53846;51.984;5.890;2022-10-16T16:03:31;23.30;47.10
66934;DHT22;53846;51.984;5.890;2022-10-16T16:06:04;23.20;48.00
66934;DHT22;53846;51.984;5.890;2022-10-16T16:08:37;23.20;48.70
66934;DHT22;53846;51.984;5.890;2022-10-16T16:11:08;23.20;48.90
66934;DHT22;53846;51.984;5.890;2022-10-16T16:13:37;22.80;48.90